Impacts TAF Board
For situational awareness. Not to be used for flight planning purposes.
IDs:

KSEA - Seattle-Tacoma Intl, WA, US

Issued at 2104 UTC 06 Dec 2019
Updated at 2133 UTC 06 Dec 2019
Potential Impact None Slight Moderate High
Time2053Z 06/22Z 06/23Z 07/00Z 07/01Z 07/02Z 07/03Z 07/04Z 07/05Z 07/06Z 07/07Z 07/08Z 07/09Z 07/10Z>>
Type OBS PRVL PRVL PRVL PRVL PRVL PRVL PRVL PRVL PRVL PRVL PRVL PRVL PRVL
VIS 10 >6 >6 >6 >6 >6 >6 >6 >6 >6 >6 >6 >6 >6
CIG 180 50 50 50 50 50 50 50 50 50 50 25 25 20
Cover BKN OVC OVC OVC OVC OVC OVC OVC OVC OVC OVC OVC OVC OVC
FltCat VFR VFR VFR VFR VFR VFR VFR VFR VFR VFR VFR MVFR MVFR MVFR
WX -- -- -- -- -- -RA -RA -RA -RA -RA -RA -RA -RA -RA
WDir 190 160 160 160 160 160 160 160 160 160 160 160 160 VRB
WSpd 4 5 5 5 5 8 8 8 8 8 8 8 8 4
WGst -- -- -- -- -- -- -- -- -- -- -- -- -- --
Raw TAF
KSEA 062104Z 0621/0724 16005KT P6SM BKN060 BKN150
  FM062200 16005KT P6SM BKN050 OVC090
  FM070200 16008KT P6SM -RA SCT025 OVC050
  FM070800 16008KT P6SM -RA BKN025 OVC040
  FM071000 VRB04KT P6SM -RA OVC020
  FM071500 VRB04KT 4SM -RA BR OVC012
  FM072000 VRB04KT P6SM -SHRA BKN015 BKN030


Raw METAR
KSEA 062053Z 19004KT 10SM SCT080 BKN180 BKN250 13/04 A2985 RMK AO2 SLP116 T01330044 58020
KSEA 061953Z 12005KT 10SM SCT080 BKN170 13/04 A2988 RMK AO2 SLP126 T01280039
KSEA 061853Z 14007KT 10SM SCT080 BKN190 12/03 A2990 RMK AO2 SLP133 T01170028

METAR Board
Radar Display
Forecast Discussion
For situational awareness. Not to be used for flight planning purposes.